Time;durP1;ratioP1;P1;durP2;ratioP2;P2;SDS_P1;SDS_P2;PMS_P1;PMS_P2;Temp;Humidity;BMP_temperature;BMP_pressure;BME280_temperature;BME280_humidity;BME280_pressure;Samples;Min_cycle;Max_cycle;Signal;HPM_P1;HPM_P2
2022/10/07 00:01:56;;;;;;;;;;;11.00;99.90;;;;;;5077872;28;20018;-66
2022/10/07 00:04:21;;;;;;;;;;;10.90;99.90;;;;;;5077875;28;20240;-66
2022/10/07 00:06:47;;;;;;;;;;;10.90;99.90;;;;;;5077104;28;19924;-66
2022/10/07 00:09:13;;;;;;;;;;;10.90;99.90;;;;;;5077778;28;20280;-66
2022/10/07 00:11:39;;;;;;;;;;;10.90;99.90;;;;;;5077612;28;19978;-67
2022/10/07 00:14:06;;;;;;;;;;;11.00;99.90;;;;;;5078026;28;19959;-66
2022/10/07 00:16:33;;;;;;;;;;;11.00;99.90;;;;;;5076960;28;19915;-66
2022/10/07 00:19:00;;;;;;;;;;;11.00;99.90;;;;;;5077649;28;19935;-66
2022/10/07 00:21:28;;;;;;;;;;;11.10;99.90;;;;;;5076865;28;19919;-66
2022/10/07 00:23:53;;;;;;;;;;;11.10;99.90;;;;;;5077707;28;20003;-67
2022/10/07 00:26:21;;;;;;;;;;;11.00;99.90;;;;;;5076847;28;20327;-66
2022/10/07 00:28:47;;;;;;;;;;;10.90;99.90;;;;;;5076728;28;19908;-66
2022/10/07 00:31:17;;;;;;;;;;;10.80;99.90;;;;;;5076729;28;19919;-67
2022/10/07 00:33:43;;;;;;;;;;;10.80;99.90;;;;;;5077481;28;19924;-67
2022/10/07 00:36:17;;;;;;;;;;;10.80;99.90;;;;;;5078042;28;19908;-66
2022/10/07 00:38:44;;;;;;;;;;;10.80;99.90;;;;;;5077431;28;19912;-66
2022/10/07 00:41:20;;;;;;;;;;;10.70;99.90;;;;;;5076665;28;19956;-66
2022/10/07 00:43:46;;;;;;;;;;;10.70;99.90;;;;;;5078072;28;20263;-66
2022/10/07 00:46:20;;;;;;;;;;;10.70;99.90;;;;;;5077232;28;19957;-66
2022/10/07 00:48:45;;;;;;;;;;;10.70;99.90;;;;;;5076619;28;20268;-66
2022/10/07 00:51:14;;;;;;;;;;;10.80;99.90;;;;;;5077329;28;19942;-68
2022/10/07 00:53:40;;;;;;;;;;;10.80;99.90;;;;;;5076566;28;19952;-67
2022/10/07 00:56:09;;;;;;;;;;;10.80;99.90;;;;;;5077877;28;19999;-67
2022/10/07 00:58:36;;;;;;;;;;;10.70;99.90;;;;;;5077273;28;19948;-67
2022/10/07 01:01:02;;;;;;;;;;;10.60;99.90;;;;;;5077197;28;19912;-67
2022/10/07 01:03:28;;;;;;;;;;;10.50;99.90;;;;;;5076436;28;20219;-67
2022/10/07 01:05:54;;;;;;;;;;;10.50;99.90;;;;;;5077240;28;19908;-67
2022/10/07 01:08:20;;;;;;;;;;;10.50;99.90;;;;;;5076507;28;19941;-67
2022/10/07 01:10:55;;;;;;;;;;;10.50;99.90;;;;;;5076969;28;19916;-67
2022/10/07 01:13:41;;;;;;;;;;;10.50;99.90;;;;;;5077157;28;19908;-67
2022/10/07 01:16:06;;;;;;;;;;;10.60;99.90;;;;;;5077114;28;19912;-67
2022/10/07 01:18:32;;;;;;;;;;;10.60;99.90;;;;;;5076235;28;19961;-67
2022/10/07 01:21:10;;;;;;;;;;;10.60;99.90;;;;;;5076206;28;20192;-67
2022/10/07 01:23:38;;;;;;;;;;;10.60;99.90;;;;;;5077017;28;19908;-67
2022/10/07 01:26:13;;;;;;;;;;;10.60;99.90;;;;;;5076282;28;19909;-67
2022/10/07 01:28:39;;;;;;;;;;;10.60;99.90;;;;;;5076961;28;19969;-67
2022/10/07 01:31:06;;;;;;;;;;;10.50;99.90;;;;;;5076932;28;19959;-67
2022/10/07 01:33:33;;;;;;;;;;;10.50;99.90;;;;;;5076112;28;19999;-67
2022/10/07 01:36:03;;;;;;;;;;;10.50;99.90;;;;;;5076925;28;19908;-67
2022/10/07 01:38:32;;;;;;;;;;;10.60;99.90;;;;;;5076089;28;19912;-67
2022/10/07 01:41:03;;;;;;;;;;;10.50;99.90;;;;;;5075998;28;19960;-67
2022/10/07 01:43:30;;;;;;;;;;;10.60;99.90;;;;;;5076163;28;19916;-67
2022/10/07 01:45:56;;;;;;;;;;;10.60;99.90;;;;;;5076801;28;19919;-67
2022/10/07 01:48:22;;;;;;;;;;;10.50;99.90;;;;;;5075879;28;19995;-67
2022/10/07 01:50:49;;;;;;;;;;;10.40;99.90;;;;;;5076677;28;20286;-67
2022/10/07 01:53:21;;;;;;;;;;;10.40;99.90;;;;;;5077134;28;19904;-67
2022/10/07 01:55:57;;;;;;;;;;;10.30;99.90;;;;;;5079069;28;19908;-67
2022/10/07 01:58:23;;;;;;;;;;;10.30;99.90;;;;;;5079582;28;19922;-67
2022/10/07 02:01:05;;;;;;;;;;;10.30;99.90;;;;;;5080213;28;20007;-67
2022/10/07 02:03:31;;;;;;;;;;;10.30;99.90;;;;;;5080208;28;19908;-67
2022/10/07 02:05:57;;;;;;;;;;;10.30;99.90;;;;;;5079744;28;19914;-67
2022/10/07 02:08:32;;;;;;;;;;;10.30;99.90;;;;;;5080231;28;20003;-67
2022/10/07 02:10:58;;;;;;;;;;;10.30;99.90;;;;;;5079390;28;19920;-67
2022/10/07 02:13:27;;;;;;;;;;;10.30;99.90;;;;;;5080227;28;20015;-67
2022/10/07 02:15:53;;;;;;;;;;;10.20;99.90;;;;;;5079979;28;20322;-67
2022/10/07 02:18:19;;;;;;;;;;;10.30;99.90;;;;;;5079970;28;19908;-67
2022/10/07 02:20:46;;;;;;;;;;;10.30;99.90;;;;;;5079198;28;19927;-68
2022/10/07 02:23:13;;;;;;;;;;;10.20;99.90;;;;;;5079947;28;20019;-67
2022/10/07 02:25:41;;;;;;;;;;;10.20;99.90;;;;;;5079870;28;19912;-67
2022/10/07 02:28:09;;;;;;;;;;;10.30;99.90;;;;;;5062501;28;19954;-68
2022/10/07 02:30:36;;;;;;;;;;;10.30;99.90;;;;;;5079780;28;19908;-67
2022/10/07 02:33:06;;;;;;;;;;;10.30;99.90;;;;;;5079755;28;19974;-67
2022/10/07 02:35:35;;;;;;;;;;;10.30;99.90;;;;;;5078906;28;20057;-67
2022/10/07 02:38:04;;;;;;;;;;;10.30;99.90;;;;;;5079652;28;20195;-67
2022/10/07 02:40:38;;;;;;;;;;;10.30;99.90;;;;;;5078750;28;19920;-67
2022/10/07 02:43:16;;;;;;;;;;;10.30;99.90;;;;;;5078766;28;20195;-67
2022/10/07 02:45:44;;;;;;;;;;;10.40;99.90;;;;;;5078758;28;19908;-67
2022/10/07 02:48:11;;;;;;;;;;;10.30;99.90;;;;;;5079461;28;19911;-67
2022/10/07 02:50:38;;;;;;;;;;;10.40;99.90;;;;;;5062010;28;20279;-67
2022/10/07 02:53:04;;;;;;;;;;;10.40;99.90;;;;;;5079328;28;19909;-67
2022/10/07 02:55:30;;;;;;;;;;;10.40;99.90;;;;;;5078634;28;19909;-67
2022/10/07 02:57:58;;;;;;;;;;;10.40;99.90;;;;;;5079762;28;20024;-66
2022/10/07 03:00:24;;;;;;;;;;;10.30;99.90;;;;;;5079224;28;19923;-67
2022/10/07 03:02:52;;;;;;;;;;;10.30;99.90;;;;;;5078336;28;19913;-67
2022/10/07 03:05:20;;;;;;;;;;;10.30;99.90;;;;;;5078379;28;20295;-67
2022/10/07 03:07:49;;;;;;;;;;;10.20;99.90;;;;;;5078040;28;19912;-68
2022/10/07 03:10:15;;;;;;;;;;;10.30;99.90;;;;;;5078129;28;19962;-67
2022/10/07 03:12:42;;;;;;;;;;;10.20;99.90;;;;;;5061646;28;19916;-67
2022/10/07 03:15:10;;;;;;;;;;;10.20;99.90;;;;;;5078100;28;19916;-67
2022/10/07 03:17:36;;;;;;;;;;;10.30;99.90;;;;;;5078070;28;19912;-67
2022/10/07 03:20:02;;;;;;;;;;;10.20;99.90;;;;;;5078010;28;19939;-67
2022/10/07 03:22:28;;;;;;;;;;;10.20;99.90;;;;;;5078031;28;19912;-67
2022/10/07 03:24:54;;;;;;;;;;;10.20;99.90;;;;;;5078660;28;19920;-67
2022/10/07 03:27:20;;;;;;;;;;;10.20;99.90;;;;;;5078674;28;20356;-67
2022/10/07 03:29:47;;;;;;;;;;;10.20;99.90;;;;;;5078594;28;19912;-67
2022/10/07 03:32:14;;;;;;;;;;;10.20;99.90;;;;;;5077812;28;20018;-67
2022/10/07 03:34:40;;;;;;;;;;;10.20;99.90;;;;;;5061200;28;19912;-67
2022/10/07 03:37:06;;;;;;;;;;;10.30;99.90;;;;;;5078428;28;19919;-67
2022/10/07 03:39:32;;;;;;;;;;;10.20;99.90;;;;;;5078331;28;19912;-67
2022/10/07 03:41:59;;;;;;;;;;;10.20;99.90;;;;;;5077546;28;19912;-67
2022/10/07 03:44:25;;;;;;;;;;;10.20;99.90;;;;;;5060896;28;19916;-67
2022/10/07 03:46:53;;;;;;;;;;;10.10;99.90;;;;;;5077496;28;20303;-67
2022/10/07 03:49:22;;;;;;;;;;;10.10;99.90;;;;;;5077428;28;19962;-67
2022/10/07 03:51:48;;;;;;;;;;;10.00;99.90;;;;;;5060868;28;19912;-67
2022/10/07 03:54:14;;;;;;;;;;;10.00;99.90;;;;;;5077468;28;19922;-67
2022/10/07 03:56:40;;;;;;;;;;;9.90;99.90;;;;;;5077320;28;19920;-67
2022/10/07 03:59:05;;;;;;;;;;;9.90;99.90;;;;;;5077184;28;19916;-67
2022/10/07 04:01:31;;;;;;;;;;;9.90;99.90;;;;;;5077108;28;19917;-67
2022/10/07 04:03:59;;;;;;;;;;;9.90;99.90;;;;;;5077925;28;20231;-67
2022/10/07 04:06:26;;;;;;;;;;;9.90;99.90;;;;;;5078377;28;19912;-67
2022/10/07 04:08:54;;;;;;;;;;;9.80;99.90;;;;;;5077054;28;19908;-67
2022/10/07 04:11:20;;;;;;;;;;;9.90;99.90;;;;;;5076861;28;19928;-67
2022/10/07 04:13:47;;;;;;;;;;;9.90;99.90;;;;;;5077099;28;19942;-67
2022/10/07 04:16:15;;;;;;;;;;;9.90;99.90;;;;;;5077052;28;19919;-67
2022/10/07 04:18:41;;;;;;;;;;;9.90;99.90;;;;;;5076722;28;20003;-67
2022/10/07 04:21:07;;;;;;;;;;;9.80;99.90;;;;;;5076872;28;19999;-67
2022/10/07 04:23:34;;;;;;;;;;;9.80;99.90;;;;;;5076816;28;19908;-67
2022/10/07 04:26:00;;;;;;;;;;;9.80;99.90;;;;;;5076878;28;19934;-67
2022/10/07 04:28:27;;;;;;;;;;;9.80;99.90;;;;;;5077068;28;20192;-67
2022/10/07 04:31:02;;;;;;;;;;;9.90;99.90;;;;;;5061305;28;19963;-67
2022/10/07 04:33:33;;;;;;;;;;;9.80;99.90;;;;;;5076808;28;19970;-67
2022/10/07 04:36:09;;;;;;;;;;;9.90;99.90;;;;;;5077498;28;20019;-67
2022/10/07 04:38:43;;;;;;;;;;;9.90;99.90;;;;;;5076711;28;19962;-65
2022/10/07 04:41:10;;;;;;;;;;;9.80;99.90;;;;;;5076636;28;19978;-65
2022/10/07 04:43:37;;;;;;;;;;;9.90;99.90;;;;;;5076610;28;20280;-65
2022/10/07 04:46:14;;;;;;;;;;;10.00;99.90;;;;;;5076606;28;19938;-66
2022/10/07 04:48:48;;;;;;;;;;;9.90;99.90;;;;;;5076603;28;19916;-65
2022/10/07 04:51:17;;;;;;;;;;;9.80;99.90;;;;;;5076490;28;20311;-65
2022/10/07 04:53:50;;;;;;;;;;;9.80;99.90;;;;;;5060175;28;19912;-67
2022/10/07 04:56:16;;;;;;;;;;;9.80;99.90;;;;;;5077284;28;19919;-65
2022/10/07 04:58:42;;;;;;;;;;;9.90;99.90;;;;;;5059697;28;19912;-66
2022/10/07 05:01:08;;;;;;;;;;;9.80;99.90;;;;;;5076304;28;20026;-65
2022/10/07 05:03:40;;;;;;;;;;;9.80;99.90;;;;;;5076502;28;19969;-66
2022/10/07 05:06:07;;;;;;;;;;;9.60;99.90;;;;;;5077072;28;19931;-66
2022/10/07 05:08:35;;;;;;;;;;;9.60;99.90;;;;;;5076410;28;20183;-66
2022/10/07 05:11:01;;;;;;;;;;;9.60;99.90;;;;;;5076925;28;19926;-66
2022/10/07 05:13:31;;;;;;;;;;;9.60;99.90;;;;;;5077008;28;19924;-66
2022/10/07 05:15:58;;;;;;;;;;;9.60;99.90;;;;;;5076147;28;19959;-66
2022/10/07 05:18:25;;;;;;;;;;;9.60;99.90;;;;;;5076253;28;19904;-66
2022/10/07 05:20:53;;;;;;;;;;;9.60;99.90;;;;;;5076196;28;19978;-66
2022/10/07 05:23:22;;;;;;;;;;;9.60;99.90;;;;;;5076180;28;20382;-67
2022/10/07 05:25:55;;;;;;;;;;;9.60;99.90;;;;;;5076157;28;19918;-67
2022/10/07 05:28:22;;;;;;;;;;;9.60;99.90;;;;;;5077510;28;19943;-69
2022/10/07 05:30:48;;;;;;;;;;;9.50;99.90;;;;;;5079433;28;19908;-67
2022/10/07 05:33:13;;;;;;;;;;;9.60;99.90;;;;;;5081182;28;19916;-67
2022/10/07 05:35:44;;;;;;;;;;;9.60;99.90;;;;;;5079851;28;19923;-67
2022/10/07 05:38:10;;;;;;;;;;;9.60;99.90;;;;;;5080357;28;19908;-67
2022/10/07 05:40:37;;;;;;;;;;;9.60;99.90;;;;;;5079688;28;19963;-67
2022/10/07 05:43:03;;;;;;;;;;;9.70;99.90;;;;;;5080501;28;19916;-67
2022/10/07 05:45:30;;;;;;;;;;;9.70;99.90;;;;;;5080816;28;20299;-67
2022/10/07 05:47:57;;;;;;;;;;;9.70;99.90;;;;;;5079975;28;19913;-67
2022/10/07 05:50:23;;;;;;;;;;;9.60;99.90;;;;;;5079740;28;19920;-67
2022/10/07 05:52:50;;;;;;;;;;;9.60;99.90;;;;;;5080550;28;19939;-67
2022/10/07 05:55:17;;;;;;;;;;;9.60;99.90;;;;;;5079398;28;19908;-67
2022/10/07 05:57:44;;;;;;;;;;;9.50;99.90;;;;;;5062968;28;19913;-67
2022/10/07 06:00:11;;;;;;;;;;;9.50;99.90;;;;;;5079194;28;19999;-67
2022/10/07 06:02:39;;;;;;;;;;;9.50;99.90;;;;;;5080096;28;19908;-67
2022/10/07 06:05:05;;;;;;;;;;;9.50;99.90;;;;;;5079139;28;19908;-67
2022/10/07 06:07:31;;;;;;;;;;;9.50;99.90;;;;;;5079337;28;19913;-68
2022/10/07 06:15:29;;;;;;;;;;;9.50;99.90;;;;;;5079184;28;19912;-67
2022/10/07 06:17:54;;;;;;;;;;;9.60;99.90;;;;;;5079215;28;19916;-67
2022/10/07 06:20:20;;;;;;;;;;;9.60;99.90;;;;;;5079036;28;19923;-68
2022/10/07 06:22:48;;;;;;;;;;;9.60;99.90;;;;;;5079122;28;19999;-68
2022/10/07 06:25:15;;;;;;;;;;;9.60;99.90;;;;;;5078963;28;19912;-68
2022/10/07 06:27:42;;;;;;;;;;;9.70;99.90;;;;;;5062781;28;19912;-68
2022/10/07 06:30:08;;;;;;;;;;;9.80;99.90;;;;;;5062511;28;19966;-68
2022/10/07 06:32:34;;;;;;;;;;;9.80;99.90;;;;;;5079781;28;19912;-68
2022/10/07 06:35:00;;;;;;;;;;;9.80;99.90;;;;;;5078838;28;19909;-68
2022/10/07 06:37:28;;;;;;;;;;;9.90;99.90;;;;;;5078900;28;20165;-67
2022/10/07 06:39:54;;;;;;;;;;;9.80;99.90;;;;;;5079453;28;19913;-68
2022/10/07 06:42:21;;;;;;;;;;;9.90;99.90;;;;;;5078449;28;20303;-68
2022/10/07 06:45:16;;;;;;;;;;;9.90;99.90;;;;;;5079320;28;20207;-69
2022/10/07 06:47:42;;;;;;;;;;;9.90;99.90;;;;;;5062008;28;19919;-63
2022/10/07 06:50:07;;;;;;;;;;;10.00;99.90;;;;;;5079334;28;19912;-71
2022/10/07 06:52:33;;;;;;;;;;;10.10;99.90;;;;;;5078461;28;19973;-69
2022/10/07 06:54:59;;;;;;;;;;;10.10;99.90;;;;;;5061816;28;19912;-69
2022/10/07 06:57:24;;;;;;;;;;;10.20;99.90;;;;;;5078628;28;19908;-68
2022/10/07 06:59:50;;;;;;;;;;;10.20;99.90;;;;;;5078388;28;20026;-69
2022/10/07 07:02:16;;;;;;;;;;;10.20;99.90;;;;;;5078330;28;19970;-68
2022/10/07 07:04:42;;;;;;;;;;;10.20;99.90;;;;;;5078326;28;19993;-68
2022/10/07 07:07:10;;;;;;;;;;;10.20;99.90;;;;;;5079119;28;19953;-69
2022/10/07 07:09:37;;;;;;;;;;;10.30;99.90;;;;;;5078109;28;20007;-69
2022/10/07 07:12:04;;;;;;;;;;;10.40;99.90;;;;;;5078144;28;19927;-68
2022/10/07 07:14:34;;;;;;;;;;;10.50;99.90;;;;;;5078135;28;19916;-69
2022/10/07 07:17:05;;;;;;;;;;;10.70;99.90;;;;;;5078920;28;19948;-69
2022/10/07 07:19:31;;;;;;;;;;;10.70;99.90;;;;;;5077932;28;19923;-68
2022/10/07 07:21:57;;;;;;;;;;;10.80;99.90;;;;;;5061401;28;19916;-68
2022/10/07 07:24:24;;;;;;;;;;;10.80;99.90;;;;;;5077836;28;19912;-68
2022/10/07 07:26:51;;;;;;;;;;;10.80;99.90;;;;;;5077838;28;19912;-66
2022/10/07 07:29:18;;;;;;;;;;;10.90;99.90;;;;;;5077697;28;19999;-67
2022/10/07 07:31:51;;;;;;;;;;;11.00;99.90;;;;;;5077829;28;19918;-66
2022/10/07 07:34:20;;;;;;;;;;;11.00;99.90;;;;;;5077623;28;20330;-68
2022/10/07 07:36:47;;;;;;;;;;;11.10;99.90;;;;;;5077656;28;19908;-68
2022/10/07 07:39:16;;;;;;;;;;;11.10;99.90;;;;;;5078292;28;19912;-68
2022/10/07 07:41:46;;;;;;;;;;;11.20;99.90;;;;;;5077514;28;19916;-67
2022/10/07 07:44:14;;;;;;;;;;;11.30;99.90;;;;;;5077510;28;19931;-69
2022/10/07 07:46:42;;;;;;;;;;;11.40;99.90;;;;;;5077867;28;19908;-67
2022/10/07 07:49:11;;;;;;;;;;;11.50;99.90;;;;;;5077423;28;20310;-69
2022/10/07 07:51:41;;;;;;;;;;;11.50;99.90;;;;;;5077736;28;19908;-66
2022/10/07 07:54:08;;;;;;;;;;;11.60;99.90;;;;;;5076979;28;19912;-66
2022/10/07 07:56:34;;;;;;;;;;;11.70;99.90;;;;;;5078102;28;19966;-67
2022/10/07 07:59:00;;;;;;;;;;;11.80;99.90;;;;;;5077264;28;19924;-67
2022/10/07 08:01:30;;;;;;;;;;;11.90;99.90;;;;;;5077093;28;19912;-68
2022/10/07 08:03:56;;;;;;;;;;;12.00;99.90;;;;;;5077185;28;20206;-66
2022/10/07 08:06:23;;;;;;;;;;;12.10;99.90;;;;;;5077938;28;19904;-66
2022/10/07 08:08:50;;;;;;;;;;;12.20;99.90;;;;;;5077152;28;19962;-68
2022/10/07 08:11:19;;;;;;;;;;;12.30;99.90;;;;;;5076791;28;19963;-68
2022/10/07 08:13:47;;;;;;;;;;;12.40;99.90;;;;;;5060550;28;20207;-68
2022/10/07 08:16:19;;;;;;;;;;;12.50;99.90;;;;;;5076941;28;20257;-67
2022/10/07 08:18:47;;;;;;;;;;;12.50;99.90;;;;;;5077784;28;19909;-68
2022/10/07 08:21:14;;;;;;;;;;;12.50;99.90;;;;;;5077687;28;20183;-67
2022/10/07 08:23:40;;;;;;;;;;;12.60;99.90;;;;;;5076852;28;19947;-67
2022/10/07 08:26:07;;;;;;;;;;;12.70;99.90;;;;;;5060269;28;20244;-67
2022/10/07 08:28:34;;;;;;;;;;;12.70;99.90;;;;;;5076794;28;19962;-67
2022/10/07 08:31:05;;;;;;;;;;;12.80;99.90;;;;;;5076727;28;19904;-68
2022/10/07 08:33:35;;;;;;;;;;;12.90;99.90;;;;;;5072354;28;19908;-68
2022/10/07 08:36:01;;;;;;;;;;;13.10;99.90;;;;;;5077450;28;20288;-67
2022/10/07 08:38:31;;;;;;;;;;;13.20;99.90;;;;;;5077379;28;20176;-68
2022/10/07 08:41:04;;;;;;;;;;;13.20;99.90;;;;;;5077347;28;20238;-67
2022/10/07 08:43:30;;;;;;;;;;;13.40;99.90;;;;;;5077425;28;19938;-67
2022/10/07 08:45:56;;;;;;;;;;;13.40;99.90;;;;;;5077352;28;19904;-66
2022/10/07 08:48:24;;;;;;;;;;;13.50;99.90;;;;;;5077374;28;19938;-68
2022/10/07 08:50:54;;;;;;;;;;;13.50;99.90;;;;;;5077275;28;20004;-67
2022/10/07 08:53:25;;;;;;;;;;;13.60;99.90;;;;;;5077597;28;19908;-67
2022/10/07 08:55:52;;;;;;;;;;;13.70;99.90;;;;;;5076503;28;19943;-67
2022/10/07 08:58:18;;;;;;;;;;;13.70;99.90;;;;;;5076626;28;19948;-67
2022/10/07 09:00:57;;;;;;;;;;;13.80;99.90;;;;;;5076448;28;20009;-67
2022/10/07 09:03:38;;;;;;;;;;;13.90;99.90;;;;;;5077107;28;19973;-68
2022/10/07 09:06:12;;;;;;;;;;;14.00;99.90;;;;;;5079463;28;19923;-68
2022/10/07 09:08:42;;;;;;;;;;;14.10;99.90;;;;;;5081343;28;20172;-68
2022/10/07 09:11:18;;;;;;;;;;;14.20;99.90;;;;;;5081136;28;19923;-68
2022/10/07 09:13:51;;;;;;;;;;;14.20;99.90;;;;;;5081776;28;19909;-67
2022/10/07 09:16:19;;;;;;;;;;;14.30;99.90;;;;;;5080358;28;20313;-68
2022/10/07 09:18:57;;;;;;;;;;;14.40;99.90;;;;;;5080316;28;19908;-66
2022/10/07 09:21:24;;;;;;;;;;;14.40;99.90;;;;;;5080832;28;19974;-68
2022/10/07 09:23:54;;;;;;;;;;;14.50;99.90;;;;;;5080955;28;19904;-68
2022/10/07 09:26:20;;;;;;;;;;;14.60;99.90;;;;;;5080932;28;19919;-67
2022/10/07 09:28:46;;;;;;;;;;;14.70;99.90;;;;;;5080909;28;19908;-67
2022/10/07 09:31:13;;;;;;;;;;;14.90;99.90;;;;;;5080822;28;19916;-68
2022/10/07 09:33:48;;;;;;;;;;;14.90;99.90;;;;;;5080684;28;20195;-68
2022/10/07 09:36:17;;;;;;;;;;;15.00;99.90;;;;;;5080832;28;19978;-68
2022/10/07 09:38:44;;;;;;;;;;;15.10;99.90;;;;;;5079998;28;19997;-67
2022/10/07 09:41:18;;;;;;;;;;;15.20;99.90;;;;;;5080558;28;19908;-67
2022/10/07 09:43:57;;;;;;;;;;;15.40;99.90;;;;;;5081076;28;19919;-67
2022/10/07 09:46:50;;;;;;;;;;;15.40;99.90;;;;;;5080742;28;19916;-68
2022/10/07 09:49:28;;;;;;;;;;;15.60;99.90;;;;;;5078479;28;19969;-67
2022/10/07 09:51:58;;;;;;;;;;;15.70;99.90;;;;;;5080162;28;19969;-67
2022/10/07 09:54:24;;;;;;;;;;;15.90;99.90;;;;;;5079374;28;19909;-67
2022/10/07 09:56:53;;;;;;;;;;;16.00;99.90;;;;;;5080823;28;20149;-67
2022/10/07 09:59:29;;;;;;;;;;;16.20;99.90;;;;;;5079335;28;19908;-67
2022/10/07 10:02:01;;;;;;;;;;;16.20;99.90;;;;;;5080577;28;19923;-67
2022/10/07 10:04:31;;;;;;;;;;;16.30;99.90;;;;;;5080118;28;19908;-66
2022/10/07 10:07:02;;;;;;;;;;;16.10;99.90;;;;;;5080018;28;19909;-68
2022/10/07 10:09:28;;;;;;;;;;;16.30;99.90;;;;;;5079943;28;19938;-69
2022/10/07 10:12:01;;;;;;;;;;;16.60;99.90;;;;;;5062453;28;19929;-68
2022/10/07 10:14:42;;;;;;;;;;;16.70;99.90;;;;;;5079908;28;19916;-68
2022/10/07 10:17:20;;;;;;;;;;;16.70;99.90;;;;;;5078695;28;19919;-67
2022/10/07 10:19:46;;;;;;;;;;;16.90;99.90;;;;;;5079777;28;19940;-68
2022/10/07 10:22:25;;;;;;;;;;;16.80;99.90;;;;;;5079735;28;20319;-68
2022/10/07 10:27:50;;;;;;;;;;;17.70;99.90;;;;;;5078961;28;19912;-67
2022/10/07 10:30:19;;;;;;;;;;;18.20;99.90;;;;;;5079771;28;20272;-66
2022/10/07 10:32:56;;;;;;;;;;;18.80;99.90;;;;;;5080174;28;19908;-67
2022/10/07 10:35:25;;;;;;;;;;;19.10;99.90;;;;;;5079476;28;20280;-67
2022/10/07 10:37:57;;;;;;;;;;;19.40;99.90;;;;;;5079495;28;20302;-67
2022/10/07 10:40:35;;;;;;;;;;;19.70;99.90;;;;;;5079795;28;20310;-66
2022/10/07 10:43:15;;;;;;;;;;;18.50;99.90;;;;;;5079419;28;20329;-67
2022/10/07 10:45:50;;;;;;;;;;;18.00;99.90;;;;;;5079614;28;19970;-66
2022/10/07 10:48:36;;;;;;;;;;;18.10;99.90;;;;;;5079626;28;20274;-68
2022/10/07 10:51:05;;;;;;;;;;;18.20;99.90;;;;;;5079483;28;19986;-68
2022/10/07 10:53:35;;;;;;;;;;;18.60;99.90;;;;;;5079463;28;19930;-71
2022/10/07 10:56:11;;;;;;;;;;;18.30;99.90;;;;;;5078793;28;20007;-66
2022/10/07 10:58:53;;;;;;;;;;;18.00;99.90;;;;;;5078484;28;19912;-64
2022/10/07 11:01:19;;;;;;;;;;;18.00;99.90;;;;;;5078386;28;19938;-66
2022/10/07 11:03:54;;;;;;;;;;;18.50;99.90;;;;;;5079235;28;19982;-68
2022/10/07 11:06:21;;;;;;;;;;;18.50;99.90;;;;;;5078305;28;19908;-67
2022/10/07 11:08:46;;;;;;;;;;;19.00;99.90;;;;;;5078241;28;19904;-66
2022/10/07 11:11:16;;;;;;;;;;;19.20;99.90;;;;;;5078835;28;19943;-69
2022/10/07 11:13:45;;;;;;;;;;;19.20;99.90;;;;;;5079565;28;20153;-68
2022/10/07 11:16:15;;;;;;;;;;;19.70;99.90;;;;;;5078887;28;19912;-67
2022/10/07 11:18:44;;;;;;;;;;;19.80;99.90;;;;;;5079503;28;20264;-62
2022/10/07 11:21:16;;;;;;;;;;;19.30;99.90;;;;;;5077940;28;19956;-68
2022/10/07 11:24:00;;;;;;;;;;;18.90;99.90;;;;;;5078782;28;19909;-66
2022/10/07 11:26:42;;;;;;;;;;;19.10;99.90;;;;;;5078866;28;19908;-68
2022/10/07 11:29:14;;;;;;;;;;;18.80;99.90;;;;;;5078227;28;20017;-69
2022/10/07 11:31:41;;;;;;;;;;;19.00;99.90;;;;;;5078888;28;19919;-68
2022/10/07 11:34:09;;;;;;;;;;;19.10;99.90;;;;;;5078583;28;19914;-68
2022/10/07 11:36:42;;;;;;;;;;;18.80;99.90;;;;;;5078466;28;19909;-68
2022/10/07 11:39:08;;;;;;;;;;;18.90;99.90;;;;;;5077717;28;19909;-67
2022/10/07 11:41:54;;;;;;;;;;;19.20;99.90;;;;;;5078363;28;19912;-67
2022/10/07 11:44:23;;;;;;;;;;;19.30;99.90;;;;;;5071094;28;19908;-68
2022/10/07 11:46:49;;;;;;;;;;;19.20;99.90;;;;;;5077649;28;19908;-68
2022/10/07 11:49:15;;;;;;;;;;;19.00;99.90;;;;;;5078328;28;19958;-69
2022/10/07 11:51:59;;;;;;;;;;;19.10;99.90;;;;;;5078203;28;20275;-68
2022/10/07 11:54:27;;;;;;;;;;;19.40;99.90;;;;;;5078495;28;20272;-69
2022/10/07 11:56:55;;;;;;;;;;;19.60;99.90;;;;;;5078166;28;19908;-66
2022/10/07 11:59:39;;;;;;;;;;;19.40;99.90;;;;;;5078138;28;19909;-67
2022/10/07 12:02:25;;;;;;;;;;;19.80;99.90;;;;;;5078086;28;19912;-69
2022/10/07 12:04:51;;;;;;;;;;;19.60;99.90;;;;;;5078230;28;19937;-68
2022/10/07 12:07:35;;;;;;;;;;;19.30;99.90;;;;;;5077922;28;19909;-67
2022/10/07 12:10:02;;;;;;;;;;;19.30;99.90;;;;;;5077796;28;19908;-68
2022/10/07 12:12:43;;;;;;;;;;;19.40;99.90;;;;;;5077680;28;20295;-67
2022/10/07 12:15:28;;;;;;;;;;;19.70;99.90;;;;;;5077995;28;20268;-69
2022/10/07 12:17:54;;;;;;;;;;;19.40;99.90;;;;;;5078106;28;20307;-68
2022/10/07 12:20:36;;;;;;;;;;;19.20;99.90;;;;;;5078267;28;19916;-68
2022/10/07 12:23:27;;;;;;;;;;;19.50;99.90;;;;;;5076879;28;19920;-69
2022/10/07 12:26:31;;;;;;;;;;;19.70;99.90;;;;;;5077025;28;20327;-67
2022/10/07 12:28:57;;;;;;;;;;;19.60;99.90;;;;;;5077667;28;19917;-68
2022/10/07 12:31:23;;;;;;;;;;;19.30;99.90;;;;;;5077524;28;19920;-69
2022/10/07 12:33:56;;;;;;;;;;;19.10;99.90;;;;;;5076885;28;19908;-68
2022/10/07 12:36:22;;;;;;;;;;;18.90;99.90;;;;;;5078485;28;19997;-69
2022/10/07 12:38:57;;;;;;;;;;;18.90;99.90;;;;;;5077248;28;19926;-69
2022/10/07 12:41:24;;;;;;;;;;;19.00;99.90;;;;;;5077259;28;19923;-69
2022/10/07 12:44:05;;;;;;;;;;;19.10;99.90;;;;;;5077363;28;20254;-69
2022/10/07 12:46:36;;;;;;;;;;;19.20;99.90;;;;;;5077292;28;20295;-70
2022/10/07 12:49:05;;;;;;;;;;;19.60;99.90;;;;;;5077499;28;20219;-68
2022/10/07 12:51:37;;;;;;;;;;;19.60;99.90;;;;;;5077581;28;19962;-69
2022/10/07 12:54:04;;;;;;;;;;;19.30;99.90;;;;;;5077629;28;19912;-68
2022/10/07 12:56:30;;;;;;;;;;;19.30;99.90;;;;;;5077168;28;19920;-68
2022/10/07 13:02:00;;;;;;;;;;;19.00;99.90;;;;;;5075626;28;19975;-68
2022/10/07 13:04:38;;;;;;;;;;;19.20;99.90;;;;;;5071917;28;19948;-68
2022/10/07 13:07:30;;;;;;;;;;;19.40;99.90;;;;;;5077151;28;20009;-68
2022/10/07 13:10:05;;;;;;;;;;;19.40;99.90;;;;;;5077118;28;19958;-66
2022/10/07 13:12:34;;;;;;;;;;;19.80;99.90;;;;;;5076164;28;19917;-67
2022/10/07 13:15:00;;;;;;;;;;;20.10;99.90;;;;;;5077214;28;20185;-67
2022/10/07 13:17:26;;;;;;;;;;;20.10;99.90;;;;;;5077102;28;19918;-67
2022/10/07 13:20:10;;;;;;;;;;;20.40;99.90;;;;;;5077045;28;20295;-66
2022/10/07 13:22:38;;;;;;;;;;;20.20;99.90;;;;;;5076923;28;19916;-66
2022/10/07 13:25:06;;;;;;;;;;;20.10;99.90;;;;;;5076918;28;19916;-67
2022/10/07 13:27:33;;;;;;;;;;;19.70;99.90;;;;;;5077220;28;20276;-67
2022/10/07 13:30:00;;;;;;;;;;;19.90;99.90;;;;;;5076911;28;19908;-66
2022/10/07 13:32:30;;;;;;;;;;;20.10;99.90;;;;;;5076993;28;19908;-66
2022/10/07 13:35:00;;;;;;;;;;;20.10;99.90;;;;;;5076090;28;20353;-68
2022/10/07 13:37:33;;;;;;;;;;;20.10;99.90;;;;;;5077080;28;19909;-66
2022/10/07 13:40:20;;;;;;;;;;;20.10;99.90;;;;;;5077057;28;20287;-67
2022/10/07 13:42:52;;;;;;;;;;;20.10;99.90;;;;;;5076868;28;19919;-67
2022/10/07 13:45:17;;;;;;;;;;;20.10;99.90;;;;;;5076843;28;19908;-68
2022/10/07 13:47:45;;;;;;;;;;;20.30;99.90;;;;;;5076982;28;19927;-68
2022/10/07 13:50:17;;;;;;;;;;;20.60;99.90;;;;;;5076003;28;19908;-68
2022/10/07 13:52:45;;;;;;;;;;;20.80;99.90;;;;;;5080492;28;20169;-68
2022/10/07 13:55:19;;;;;;;;;;;21.60;99.90;;;;;;5080372;28;20268;-68
2022/10/07 13:57:45;;;;;;;;;;;22.30;99.90;;;;;;5080411;28;19974;-68
2022/10/07 14:00:11;;;;;;;;;;;22.30;99.90;;;;;;5080360;28;19943;-68
2022/10/07 14:02:43;;;;;;;;;;;22.70;99.90;;;;;;5080280;28;20199;-68
2022/10/07 14:05:19;;;;;;;;;;;22.80;99.90;;;;;;5080083;28;19908;-67
2022/10/07 14:07:45;;;;;;;;;;;22.70;99.90;;;;;;5080083;28;20014;-68
2022/10/07 14:10:11;;;;;;;;;;;23.60;99.90;;;;;;5080276;28;20264;-68
2022/10/07 14:12:40;;;;;;;;;;;25.60;99.90;;;;;;5079942;28;19921;-68
2022/10/07 14:15:13;;;;;;;;;;;27.20;99.90;;;;;;5079937;28;20015;-68
2022/10/07 14:17:42;;;;;;;;;;;25.30;99.90;;;;;;5079905;28;19943;-69
2022/10/07 14:20:22;;;;;;;;;;;25.20;99.90;;;;;;5080332;28;20338;-67
2022/10/07 14:22:50;;;;;;;;;;;26.30;99.90;;;;;;5079796;28;19912;-67
2022/10/07 14:25:17;;;;;;;;;;;25.60;99.90;;;;;;5080022;28;19908;-68
2022/10/07 14:27:46;;;;;;;;;;;25.70;99.90;;;;;;5079158;28;20286;-67
2022/10/07 14:35:16;;;;;;;;;;;24.80;99.90;;;;;;5079722;28;19944;-68
2022/10/07 14:36:13;;;;;;;;;;;27.30;99.90;;;;;;5079521;28;19909;-68
2022/10/07 14:38:40;;;;;;;;;;;26.40;99.90;;;;;;5079538;28;19908;-67
2022/10/07 14:41:06;;;;;;;;;;;26.00;99.90;;;;;;5079479;28;19973;-67
2022/10/07 14:43:33;;;;;;;;;;;26.70;99.90;;;;;;5078757;28;19927;-65
2022/10/07 14:46:17;;;;;;;;;;;25.90;99.90;;;;;;5079487;28;20005;-67
2022/10/07 14:48:44;;;;;;;;;;;25.20;99.90;;;;;;5078678;28;19919;-67